sensor_id;sensor_type;location;lat;lon;timestamp;P1;durP1;ratioP1;P2;durP2;ratioP2
12052;SDS011;6087;48.982;12.064;2023-05-10T00:01:27;2.60;;;2.40;;
12052;SDS011;6087;48.982;12.064;2023-05-10T00:03:54;3.38;;;2.90;;
12052;SDS011;6087;48.982;12.064;2023-05-10T00:06:25;3.03;;;2.83;;
12052;SDS011;6087;48.982;12.064;2023-05-10T00:08:52;4.68;;;2.80;;
12052;SDS011;6087;48.982;12.064;2023-05-10T00:11:29;2.80;;;2.60;;
12052;SDS011;6087;48.982;12.064;2023-05-10T00:13:56;3.20;;;2.92;;
12052;SDS011;6087;48.982;12.064;2023-05-10T00:16:25;3.53;;;2.65;;
12052;SDS011;6087;48.982;12.064;2023-05-10T00:18:52;4.20;;;3.33;;
12052;SDS011;6087;48.982;12.064;2023-05-10T00:21:19;4.13;;;2.50;;
12052;SDS011;6087;48.982;12.064;2023-05-10T00:23:47;3.50;;;2.63;;
12052;SDS011;6087;48.982;12.064;2023-05-10T00:26:14;3.80;;;3.22;;
12052;SDS011;6087;48.982;12.064;2023-05-10T00:28:41;4.30;;;2.92;;
12052;SDS011;6087;48.982;12.064;2023-05-10T00:31:08;2.88;;;2.67;;
12052;SDS011;6087;48.982;12.064;2023-05-10T00:33:35;4.03;;;3.35;;
12052;SDS011;6087;48.982;12.064;2023-05-10T00:36:02;2.78;;;2.58;;
12052;SDS011;6087;48.982;12.064;2023-05-10T00:38:29;3.03;;;2.72;;
12052;SDS011;6087;48.982;12.064;2023-05-10T00:40:57;3.15;;;2.63;;
12052;SDS011;6087;48.982;12.064;2023-05-10T00:43:24;4.00;;;3.10;;
12052;SDS011;6087;48.982;12.064;2023-05-10T00:45:51;3.03;;;2.70;;
12052;SDS011;6087;48.982;12.064;2023-05-10T00:48:18;2.95;;;2.75;;
12052;SDS011;6087;48.982;12.064;2023-05-10T00:50:45;3.33;;;3.00;;
12052;SDS011;6087;48.982;12.064;2023-05-10T00:53:12;4.35;;;3.15;;
12052;SDS011;6087;48.982;12.064;2023-05-10T00:55:40;4.45;;;3.03;;
12052;SDS011;6087;48.982;12.064;2023-05-10T00:58:09;3.30;;;3.00;;
12052;SDS011;6087;48.982;12.064;2023-05-10T01:00:36;3.35;;;3.05;;
12052;SDS011;6087;48.982;12.064;2023-05-10T01:03:04;3.22;;;2.92;;
12052;SDS011;6087;48.982;12.064;2023-05-10T01:05:31;4.43;;;3.28;;
12052;SDS011;6087;48.982;12.064;2023-05-10T01:07:57;3.50;;;3.15;;
12052;SDS011;6087;48.982;12.064;2023-05-10T01:10:24;4.50;;;3.35;;
12052;SDS011;6087;48.982;12.064;2023-05-10T01:12:51;3.80;;;3.40;;
12052;SDS011;6087;48.982;12.064;2023-05-10T01:15:20;3.63;;;3.30;;
12052;SDS011;6087;48.982;12.064;2023-05-10T01:17:47;4.32;;;3.90;;
12052;SDS011;6087;48.982;12.064;2023-05-10T01:20:15;4.25;;;3.85;;
12052;SDS011;6087;48.982;12.064;2023-05-10T01:23:05;4.38;;;3.50;;
12052;SDS011;6087;48.982;12.064;2023-05-10T01:26:07;3.97;;;3.17;;
12052;SDS011;6087;48.982;12.064;2023-05-10T01:28:58;4.15;;;2.90;;
12052;SDS011;6087;48.982;12.064;2023-05-10T01:34:57;2.67;;;2.47;;
12052;SDS011;6087;48.982;12.064;2023-05-10T01:37:31;3.80;;;3.38;;
12052;SDS011;6087;48.982;12.064;2023-05-10T01:40:09;3.47;;;3.15;;
12052;SDS011;6087;48.982;12.064;2023-05-10T01:42:46;3.80;;;3.45;;
12052;SDS011;6087;48.982;12.064;2023-05-10T01:45:20;3.70;;;3.38;;
12052;SDS011;6087;48.982;12.064;2023-05-10T01:47:55;4.00;;;3.47;;
12052;SDS011;6087;48.982;12.064;2023-05-10T01:50:30;4.20;;;3.58;;
12052;SDS011;6087;48.982;12.064;2023-05-10T01:52:59;3.88;;;3.50;;
12052;SDS011;6087;48.982;12.064;2023-05-10T01:55:29;3.50;;;3.17;;
12052;SDS011;6087;48.982;12.064;2023-05-10T01:58:01;3.17;;;2.88;;
12052;SDS011;6087;48.982;12.064;2023-05-10T02:00:30;5.30;;;3.70;;
12052;SDS011;6087;48.982;12.064;2023-05-10T02:03:01;3.88;;;3.58;;
12052;SDS011;6087;48.982;12.064;2023-05-10T02:05:32;3.70;;;3.40;;
12052;SDS011;6087;48.982;12.064;2023-05-10T02:08:07;4.40;;;3.40;;
12052;SDS011;6087;48.982;12.064;2023-05-10T02:10:35;3.63;;;3.33;;
12052;SDS011;6087;48.982;12.064;2023-05-10T02:13:05;3.63;;;3.30;;
12052;SDS011;6087;48.982;12.064;2023-05-10T02:15:33;3.67;;;3.38;;
12052;SDS011;6087;48.982;12.064;2023-05-10T02:18:03;3.40;;;3.10;;
12052;SDS011;6087;48.982;12.064;2023-05-10T02:20:31;5.28;;;3.80;;
12052;SDS011;6087;48.982;12.064;2023-05-10T02:22:59;4.10;;;3.70;;
12052;SDS011;6087;48.982;12.064;2023-05-10T02:25:28;4.22;;;3.50;;
12052;SDS011;6087;48.982;12.064;2023-05-10T02:27:56;4.30;;;3.42;;
12052;SDS011;6087;48.982;12.064;2023-05-10T02:30:24;4.38;;;3.83;;
12052;SDS011;6087;48.982;12.064;2023-05-10T02:32:51;7.68;;;3.78;;
12052;SDS011;6087;48.982;12.064;2023-05-10T02:35:20;4.55;;;3.97;;
12052;SDS011;6087;48.982;12.064;2023-05-10T02:37:48;3.83;;;3.47;;
12052;SDS011;6087;48.982;12.064;2023-05-10T02:40:16;3.92;;;3.53;;
12052;SDS011;6087;48.982;12.064;2023-05-10T02:42:43;4.13;;;3.75;;
12052;SDS011;6087;48.982;12.064;2023-05-10T02:45:11;4.50;;;4.10;;
12052;SDS011;6087;48.982;12.064;2023-05-10T02:47:41;4.72;;;3.58;;
12052;SDS011;6087;48.982;12.064;2023-05-10T02:50:09;4.93;;;4.30;;
12052;SDS011;6087;48.982;12.064;2023-05-10T02:52:42;5.53;;;4.00;;
12052;SDS011;6087;48.982;12.064;2023-05-10T02:55:16;6.20;;;3.83;;
12052;SDS011;6087;48.982;12.064;2023-05-10T02:57:48;8.30;;;4.43;;
12052;SDS011;6087;48.982;12.064;2023-05-10T03:00:19;4.72;;;4.22;;
12052;SDS011;6087;48.982;12.064;2023-05-10T03:02:46;4.60;;;4.20;;
12052;SDS011;6087;48.982;12.064;2023-05-10T03:05:13;5.60;;;4.22;;
12052;SDS011;6087;48.982;12.064;2023-05-10T03:07:45;4.13;;;3.75;;
12052;SDS011;6087;48.982;12.064;2023-05-10T03:10:12;5.60;;;4.05;;
12052;SDS011;6087;48.982;12.064;2023-05-10T03:12:43;6.13;;;4.47;;
12052;SDS011;6087;48.982;12.064;2023-05-10T03:15:25;4.93;;;4.22;;
12052;SDS011;6087;48.982;12.064;2023-05-10T03:18:01;7.85;;;4.95;;
12052;SDS011;6087;48.982;12.064;2023-05-10T03:20:33;4.97;;;3.97;;
12052;SDS011;6087;48.982;12.064;2023-05-10T03:23:07;5.05;;;4.60;;
12052;SDS011;6087;48.982;12.064;2023-05-10T03:25:38;7.05;;;4.68;;
12052;SDS011;6087;48.982;12.064;2023-05-10T03:28:08;5.75;;;5.13;;
12052;SDS011;6087;48.982;12.064;2023-05-10T03:30:35;6.80;;;4.28;;
12052;SDS011;6087;48.982;12.064;2023-05-10T03:33:04;4.68;;;4.28;;
12052;SDS011;6087;48.982;12.064;2023-05-10T03:35:32;5.45;;;4.70;;
12052;SDS011;6087;48.982;12.064;2023-05-10T03:37:59;5.72;;;4.78;;
12052;SDS011;6087;48.982;12.064;2023-05-10T03:40:27;5.50;;;5.00;;
12052;SDS011;6087;48.982;12.064;2023-05-10T03:42:56;5.85;;;4.90;;
12052;SDS011;6087;48.982;12.064;2023-05-10T03:45:23;11.27;;;5.60;;
12052;SDS011;6087;48.982;12.064;2023-05-10T03:47:50;6.95;;;4.75;;
12052;SDS011;6087;48.982;12.064;2023-05-10T03:50:17;6.57;;;5.75;;
12052;SDS011;6087;48.982;12.064;2023-05-10T03:52:44;5.18;;;4.68;;
12052;SDS011;6087;48.982;12.064;2023-05-10T03:55:11;5.40;;;4.90;;
12052;SDS011;6087;48.982;12.064;2023-05-10T03:57:39;6.80;;;5.55;;
12052;SDS011;6087;48.982;12.064;2023-05-10T04:00:07;6.22;;;5.47;;
12052;SDS011;6087;48.982;12.064;2023-05-10T04:02:34;6.15;;;5.55;;
12052;SDS011;6087;48.982;12.064;2023-05-10T04:05:01;5.97;;;5.47;;
12052;SDS011;6087;48.982;12.064;2023-05-10T04:07:28;7.15;;;4.88;;
12052;SDS011;6087;48.982;12.064;2023-05-10T04:09:55;6.22;;;5.63;;
12052;SDS011;6087;48.982;12.064;2023-05-10T04:12:22;6.72;;;5.45;;
12052;SDS011;6087;48.982;12.064;2023-05-10T04:14:50;6.22;;;5.38;;
12052;SDS011;6087;48.982;12.064;2023-05-10T04:17:17;6.50;;;5.90;;
12052;SDS011;6087;48.982;12.064;2023-05-10T04:19:47;6.47;;;5.75;;
12052;SDS011;6087;48.982;12.064;2023-05-10T04:22:13;7.47;;;6.22;;
12052;SDS011;6087;48.982;12.064;2023-05-10T04:24:41;6.22;;;5.63;;
12052;SDS011;6087;48.982;12.064;2023-05-10T04:27:07;5.97;;;5.47;;
12052;SDS011;6087;48.982;12.064;2023-05-10T04:29:34;7.47;;;6.60;;
12052;SDS011;6087;48.982;12.064;2023-05-10T04:32:05;8.55;;;7.07;;
12052;SDS011;6087;48.982;12.064;2023-05-10T04:34:33;8.05;;;5.90;;
12052;SDS011;6087;48.982;12.064;2023-05-10T04:37:02;6.93;;;5.88;;
12052;SDS011;6087;48.982;12.064;2023-05-10T04:39:29;7.47;;;6.53;;
12052;SDS011;6087;48.982;12.064;2023-05-10T04:41:56;6.70;;;6.03;;
12052;SDS011;6087;48.982;12.064;2023-05-10T04:44:30;9.25;;;6.32;;
12052;SDS011;6087;48.982;12.064;2023-05-10T04:46:57;6.35;;;5.68;;
12052;SDS011;6087;48.982;12.064;2023-05-10T04:49:26;7.45;;;6.10;;
12052;SDS011;6087;48.982;12.064;2023-05-10T04:51:52;8.60;;;6.75;;
12052;SDS011;6087;48.982;12.064;2023-05-10T04:54:19;11.20;;;6.85;;
12052;SDS011;6087;48.982;12.064;2023-05-10T04:56:46;11.80;;;6.40;;
12052;SDS011;6087;48.982;12.064;2023-05-10T04:59:13;7.72;;;6.50;;
12052;SDS011;6087;48.982;12.064;2023-05-10T05:01:40;8.00;;;6.22;;
12052;SDS011;6087;48.982;12.064;2023-05-10T05:04:07;9.10;;;6.00;;
12052;SDS011;6087;48.982;12.064;2023-05-10T05:06:35;6.70;;;6.10;;
12052;SDS011;6087;48.982;12.064;2023-05-10T05:09:02;7.07;;;5.78;;
12052;SDS011;6087;48.982;12.064;2023-05-10T05:11:29;7.03;;;6.15;;
12052;SDS011;6087;48.982;12.064;2023-05-10T05:13:55;6.88;;;6.18;;
12052;SDS011;6087;48.982;12.064;2023-05-10T05:16:23;7.90;;;6.30;;
12052;SDS011;6087;48.982;12.064;2023-05-10T05:18:50;7.10;;;5.90;;
12052;SDS011;6087;48.982;12.064;2023-05-10T05:21:18;9.07;;;7.00;;
12052;SDS011;6087;48.982;12.064;2023-05-10T05:23:47;8.10;;;7.03;;
12052;SDS011;6087;48.982;12.064;2023-05-10T05:26:14;8.98;;;6.68;;
12052;SDS011;6087;48.982;12.064;2023-05-10T05:28:41;8.75;;;6.82;;
12052;SDS011;6087;48.982;12.064;2023-05-10T05:31:08;8.25;;;7.35;;
12052;SDS011;6087;48.982;12.064;2023-05-10T05:33:35;8.20;;;6.55;;
12052;SDS011;6087;48.982;12.064;2023-05-10T05:36:02;9.05;;;6.60;;
12052;SDS011;6087;48.982;12.064;2023-05-10T05:38:30;8.85;;;6.70;;
12052;SDS011;6087;48.982;12.064;2023-05-10T05:40:58;7.63;;;6.82;;
12052;SDS011;6087;48.982;12.064;2023-05-10T05:43:25;8.15;;;6.63;;
12052;SDS011;6087;48.982;12.064;2023-05-10T05:45:52;7.80;;;6.75;;
12052;SDS011;6087;48.982;12.064;2023-05-10T05:48:19;7.20;;;6.50;;
12052;SDS011;6087;48.982;12.064;2023-05-10T05:50:49;7.35;;;6.60;;
12052;SDS011;6087;48.982;12.064;2023-05-10T05:53:18;9.15;;;6.63;;
12052;SDS011;6087;48.982;12.064;2023-05-10T05:55:50;8.43;;;6.78;;
12052;SDS011;6087;48.982;12.064;2023-05-10T05:58:20;8.60;;;7.00;;
12052;SDS011;6087;48.982;12.064;2023-05-10T06:00:47;7.15;;;6.45;;
12052;SDS011;6087;48.982;12.064;2023-05-10T06:03:14;6.97;;;6.28;;
12052;SDS011;6087;48.982;12.064;2023-05-10T06:05:41;8.25;;;7.13;;
12052;SDS011;6087;48.982;12.064;2023-05-10T06:08:08;7.78;;;6.97;;
12052;SDS011;6087;48.982;12.064;2023-05-10T06:10:35;8.98;;;7.10;;
12052;SDS011;6087;48.982;12.064;2023-05-10T06:13:04;8.80;;;7.25;;
12052;SDS011;6087;48.982;12.064;2023-05-10T06:15:33;8.10;;;6.75;;
12052;SDS011;6087;48.982;12.064;2023-05-10T06:17:59;12.57;;;7.68;;
12052;SDS011;6087;48.982;12.064;2023-05-10T06:20:26;6.85;;;6.15;;
12052;SDS011;6087;48.982;12.064;2023-05-10T06:22:53;9.57;;;7.15;;
12052;SDS011;6087;48.982;12.064;2023-05-10T06:25:20;7.20;;;6.50;;
12052;SDS011;6087;48.982;12.064;2023-05-10T06:27:47;7.80;;;6.88;;
12052;SDS011;6087;48.982;12.064;2023-05-10T06:30:14;7.82;;;6.97;;
12052;SDS011;6087;48.982;12.064;2023-05-10T06:32:43;7.78;;;6.72;;
12052;SDS011;6087;48.982;12.064;2023-05-10T06:35:10;8.80;;;7.07;;
12052;SDS011;6087;48.982;12.064;2023-05-10T06:37:37;8.02;;;6.97;;
12052;SDS011;6087;48.982;12.064;2023-05-10T06:40:04;9.90;;;7.65;;
12052;SDS011;6087;48.982;12.064;2023-05-10T06:42:32;9.95;;;7.70;;
12052;SDS011;6087;48.982;12.064;2023-05-10T06:44:59;7.70;;;6.35;;
12052;SDS011;6087;48.982;12.064;2023-05-10T06:47:26;7.97;;;6.65;;
12052;SDS011;6087;48.982;12.064;2023-05-10T06:49:54;7.82;;;7.03;;
12052;SDS011;6087;48.982;12.064;2023-05-10T06:52:21;9.27;;;7.70;;
12052;SDS011;6087;48.982;12.064;2023-05-10T06:54:48;8.50;;;7.43;;
12052;SDS011;6087;48.982;12.064;2023-05-10T06:57:15;8.18;;;7.07;;
12052;SDS011;6087;48.982;12.064;2023-05-10T06:59:42;7.85;;;7.05;;
12052;SDS011;6087;48.982;12.064;2023-05-10T07:02:09;10.05;;;7.43;;
12052;SDS011;6087;48.982;12.064;2023-05-10T07:04:36;8.88;;;6.47;;
12052;SDS011;6087;48.982;12.064;2023-05-10T07:07:04;8.43;;;7.10;;
12052;SDS011;6087;48.982;12.064;2023-05-10T07:09:31;8.45;;;7.28;;
12052;SDS011;6087;48.982;12.064;2023-05-10T07:11:58;8.50;;;7.25;;
12052;SDS011;6087;48.982;12.064;2023-05-10T07:14:29;8.05;;;7.18;;
12052;SDS011;6087;48.982;12.064;2023-05-10T07:16:56;7.88;;;6.65;;
12052;SDS011;6087;48.982;12.064;2023-05-10T07:19:23;7.75;;;6.80;;
12052;SDS011;6087;48.982;12.064;2023-05-10T07:21:54;7.97;;;6.80;;
12052;SDS011;6087;48.982;12.064;2023-05-10T07:24:22;7.50;;;5.30;;
12052;SDS011;6087;48.982;12.064;2023-05-10T07:26:59;8.73;;;5.25;;
12052;SDS011;6087;48.982;12.064;2023-05-10T07:29:26;6.25;;;4.07;;
12052;SDS011;6087;48.982;12.064;2023-05-10T07:31:56;5.80;;;4.53;;
12052;SDS011;6087;48.982;12.064;2023-05-10T07:34:22;4.35;;;3.85;;
12052;SDS011;6087;48.982;12.064;2023-05-10T07:36:49;4.68;;;3.92;;
12052;SDS011;6087;48.982;12.064;2023-05-10T07:39:16;4.78;;;3.95;;
12052;SDS011;6087;48.982;12.064;2023-05-10T07:41:44;6.57;;;3.53;;
12052;SDS011;6087;48.982;12.064;2023-05-10T07:44:11;3.75;;;3.40;;
12052;SDS011;6087;48.982;12.064;2023-05-10T07:46:38;3.38;;;2.70;;
12052;SDS011;6087;48.982;12.064;2023-05-10T07:49:05;3.50;;;3.20;;
12052;SDS011;6087;48.982;12.064;2023-05-10T07:51:32;3.63;;;2.72;;
12052;SDS011;6087;48.982;12.064;2023-05-10T07:53:59;3.17;;;2.88;;
12052;SDS011;6087;48.982;12.064;2023-05-10T07:56:28;2.67;;;2.47;;
12052;SDS011;6087;48.982;12.064;2023-05-10T07:58:58;3.78;;;2.80;;
12052;SDS011;6087;48.982;12.064;2023-05-10T08:01:25;4.15;;;2.80;;
12052;SDS011;6087;48.982;12.064;2023-05-10T08:03:52;3.83;;;2.28;;
12052;SDS011;6087;48.982;12.064;2023-05-10T08:06:19;3.65;;;2.17;;
12052;SDS011;6087;48.982;12.064;2023-05-10T08:08:47;2.38;;;2.00;;
12052;SDS011;6087;48.982;12.064;2023-05-10T08:11:15;2.40;;;2.20;;
12052;SDS011;6087;48.982;12.064;2023-05-10T08:13:42;5.20;;;2.80;;
12052;SDS011;6087;48.982;12.064;2023-05-10T08:16:11;2.17;;;1.98;;
12052;SDS011;6087;48.982;12.064;2023-05-10T08:18:38;1.77;;;1.60;;
12052;SDS011;6087;48.982;12.064;2023-05-10T08:21:05;1.77;;;1.48;;
12052;SDS011;6087;48.982;12.064;2023-05-10T08:23:32;4.32;;;1.38;;
12052;SDS011;6087;48.982;12.064;2023-05-10T08:25:59;1.73;;;1.20;;
12052;SDS011;6087;48.982;12.064;2023-05-10T08:28:26;0.63;;;0.63;;
12052;SDS011;6087;48.982;12.064;2023-05-10T08:30:53;1.10;;;1.00;;
12052;SDS011;6087;48.982;12.064;2023-05-10T08:33:22;2.00;;;0.82;;
12052;SDS011;6087;48.982;12.064;2023-05-10T08:35:48;0.70;;;0.70;;
12052;SDS011;6087;48.982;12.064;2023-05-10T08:38:15;0.50;;;0.50;;
12052;SDS011;6087;48.982;12.064;2023-05-10T08:40:42;0.50;;;0.50;;
12052;SDS011;6087;48.982;12.064;2023-05-10T08:43:11;0.60;;;0.60;;
12052;SDS011;6087;48.982;12.064;2023-05-10T08:45:45;1.48;;;0.52;;
12052;SDS011;6087;48.982;12.064;2023-05-10T08:48:13;0.65;;;0.50;;
12052;SDS011;6087;48.982;12.064;2023-05-10T08:50:41;0.38;;;0.38;;
12052;SDS011;6087;48.982;12.064;2023-05-10T08:53:09;0.57;;;0.57;;
12052;SDS011;6087;48.982;12.064;2023-05-10T08:55:37;0.52;;;0.52;;
12052;SDS011;6087;48.982;12.064;2023-05-10T08:58:05;0.60;;;0.60;;
12052;SDS011;6087;48.982;12.064;2023-05-10T09:00:33;0.82;;;0.82;;
12052;SDS011;6087;48.982;12.064;2023-05-10T09:03:00;0.70;;;0.70;;
12052;SDS011;6087;48.982;12.064;2023-05-10T09:05:28;1.40;;;0.70;;
12052;SDS011;6087;48.982;12.064;2023-05-10T09:07:57;7.50;;;0.80;;
12052;SDS011;6087;48.982;12.064;2023-05-10T09:10:25;0.80;;;0.80;;
12052;SDS011;6087;48.982;12.064;2023-05-10T09:12:53;0.80;;;0.80;;
12052;SDS011;6087;48.982;12.064;2023-05-10T09:15:23;1.40;;;0.52;;
12052;SDS011;6087;48.982;12.064;2023-05-10T09:17:50;0.77;;;0.77;;
12052;SDS011;6087;48.982;12.064;2023-05-10T09:20:17;1.52;;;0.90;;
12052;SDS011;6087;48.982;12.064;2023-05-10T09:22:45;0.80;;;0.65;;
12052;SDS011;6087;48.982;12.064;2023-05-10T09:25:14;0.75;;;0.60;;
12052;SDS011;6087;48.982;12.064;2023-05-10T09:27:43;0.65;;;0.65;;
12052;SDS011;6087;48.982;12.064;2023-05-10T09:30:14;1.10;;;1.00;;
12052;SDS011;6087;48.982;12.064;2023-05-10T09:32:47;1.40;;;0.90;;
12052;SDS011;6087;48.982;12.064;2023-05-10T09:35:15;1.65;;;1.10;;
12052;SDS011;6087;48.982;12.064;2023-05-10T09:37:51;0.75;;;0.75;;
12052;SDS011;6087;48.982;12.064;2023-05-10T09:40:21;1.65;;;0.80;;
12052;SDS011;6087;48.982;12.064;2023-05-10T09:42:52;0.60;;;0.60;;
12052;SDS011;6087;48.982;12.064;2023-05-10T09:45:20;2.65;;;0.90;;
12052;SDS011;6087;48.982;12.064;2023-05-10T09:47:48;0.90;;;0.90;;
12052;SDS011;6087;48.982;12.064;2023-05-10T09:50:15;2.05;;;1.02;;
12052;SDS011;6087;48.982;12.064;2023-05-10T09:52:46;1.02;;;0.70;;
12052;SDS011;6087;48.982;12.064;2023-05-10T09:55:14;0.80;;;0.80;;
12052;SDS011;6087;48.982;12.064;2023-05-10T09:57:43;0.50;;;0.50;;
12052;SDS011;6087;48.982;12.064;2023-05-10T10:00:10;1.42;;;0.80;;
12052;SDS011;6087;48.982;12.064;2023-05-10T10:02:45;0.80;;;0.60;;
12052;SDS011;6087;48.982;12.064;2023-05-10T10:05:13;0.65;;;0.65;;
12052;SDS011;6087;48.982;12.064;2023-05-10T10:07:41;0.68;;;0.68;;
12052;SDS011;6087;48.982;12.064;2023-05-10T10:10:08;2.28;;;0.80;;
12052;SDS011;6087;48.982;12.064;2023-05-10T10:12:44;2.22;;;0.90;;
12052;SDS011;6087;48.982;12.064;2023-05-10T10:15:11;1.17;;;0.65;;
12052;SDS011;6087;48.982;12.064;2023-05-10T10:17:39;1.98;;;0.80;;
12052;SDS011;6087;48.982;12.064;2023-05-10T10:20:07;0.80;;;0.80;;
12052;SDS011;6087;48.982;12.064;2023-05-10T10:22:35;0.90;;;0.90;;
12052;SDS011;6087;48.982;12.064;2023-05-10T10:25:04;1.58;;;0.70;;
12052;SDS011;6087;48.982;12.064;2023-05-10T10:27:42;1.00;;;0.73;;
12052;SDS011;6087;48.982;12.064;2023-05-10T10:30:18;2.92;;;0.50;;
12052;SDS011;6087;48.982;12.064;2023-05-10T10:33:06;0.80;;;0.70;;
12052;SDS011;6087;48.982;12.064;2023-05-10T10:35:57;0.57;;;0.57;;
12052;SDS011;6087;48.982;12.064;2023-05-10T10:38:35;0.45;;;0.43;;
12052;SDS011;6087;48.982;12.064;2023-05-10T10:41:09;0.40;;;0.38;;
12052;SDS011;6087;48.982;12.064;2023-05-10T10:43:38;0.38;;;0.30;;
12052;SDS011;6087;48.982;12.064;2023-05-10T10:46:09;0.50;;;0.50;;
12052;SDS011;6087;48.982;12.064;2023-05-10T10:48:40;0.32;;;0.32;;
12052;SDS011;6087;48.982;12.064;2023-05-10T10:51:07;0.63;;;0.63;;
12052;SDS011;6087;48.982;12.064;2023-05-10T10:53:34;0.55;;;0.55;;
12052;SDS011;6087;48.982;12.064;2023-05-10T10:56:06;0.50;;;0.50;;
12052;SDS011;6087;48.982;12.064;2023-05-10T10:58:34;1.65;;;0.60;;
12052;SDS011;6087;48.982;12.064;2023-05-10T11:01:13;1.58;;;0.80;;
12052;SDS011;6087;48.982;12.064;2023-05-10T11:03:41;1.58;;;0.80;;
12052;SDS011;6087;48.982;12.064;2023-05-10T11:06:42;0.60;;;0.60;;
12052;SDS011;6087;48.982;12.064;2023-05-10T11:09:10;1.75;;;0.63;;
12052;SDS011;6087;48.982;12.064;2023-05-10T11:11:48;0.82;;;0.77;;
12052;SDS011;6087;48.982;12.064;2023-05-10T11:14:19;1.10;;;0.80;;
12052;SDS011;6087;48.982;12.064;2023-05-10T11:16:46;0.85;;;0.80;;
12052;SDS011;6087;48.982;12.064;2023-05-10T11:19:14;2.53;;;0.70;;
12052;SDS011;6087;48.982;12.064;2023-05-10T11:21:46;1.05;;;1.05;;
12052;SDS011;6087;48.982;12.064;2023-05-10T11:24:15;1.92;;;0.70;;
12052;SDS011;6087;48.982;12.064;2023-05-10T11:26:43;0.60;;;0.60;;
12052;SDS011;6087;48.982;12.064;2023-05-10T11:29:11;1.67;;;0.70;;
12052;SDS011;6087;48.982;12.064;2023-05-10T11:31:41;0.40;;;0.40;;
12052;SDS011;6087;48.982;12.064;2023-05-10T11:34:10;0.50;;;0.50;;
12052;SDS011;6087;48.982;12.064;2023-05-10T11:36:37;0.75;;;0.55;;
12052;SDS011;6087;48.982;12.064;2023-05-10T11:39:05;0.40;;;0.40;;
12052;SDS011;6087;48.982;12.064;2023-05-10T11:41:32;0.65;;;0.40;;
12052;SDS011;6087;48.982;12.064;2023-05-10T11:43:59;0.60;;;0.60;;
12052;SDS011;6087;48.982;12.064;2023-05-10T11:46:27;0.50;;;0.50;;
12052;SDS011;6087;48.982;12.064;2023-05-10T11:48:56;1.40;;;0.90;;
12052;SDS011;6087;48.982;12.064;2023-05-10T11:51:26;1.15;;;0.60;;
12052;SDS011;6087;48.982;12.064;2023-05-10T11:53:54;2.00;;;0.50;;
12052;SDS011;6087;48.982;12.064;2023-05-10T11:56:23;0.47;;;0.47;;
12052;SDS011;6087;48.982;12.064;2023-05-10T11:58:54;0.40;;;0.40;;
12052;SDS011;6087;48.982;12.064;2023-05-10T12:01:23;1.23;;;0.80;;
12052;SDS011;6087;48.982;12.064;2023-05-10T12:03:51;0.30;;;0.30;;
12052;SDS011;6087;48.982;12.064;2023-05-10T12:06:20;0.68;;;0.68;;
12052;SDS011;6087;48.982;12.064;2023-05-10T12:08:47;0.85;;;0.55;;
12052;SDS011;6087;48.982;12.064;2023-05-10T12:11:17;0.47;;;0.40;;
12052;SDS011;6087;48.982;12.064;2023-05-10T12:13:47;0.63;;;0.63;;
12052;SDS011;6087;48.982;12.064;2023-05-10T12:16:18;0.70;;;0.70;;
12052;SDS011;6087;48.982;12.064;2023-05-10T12:18:47;0.98;;;0.60;;
12052;SDS011;6087;48.982;12.064;2023-05-10T12:21:16;0.70;;;0.70;;
12052;SDS011;6087;48.982;12.064;2023-05-10T12:23:45;1.30;;;0.60;;
12052;SDS011;6087;48.982;12.064;2023-05-10T12:26:12;0.50;;;0.50;;
12052;SDS011;6087;48.982;12.064;2023-05-10T12:28:39;1.00;;;0.85;;
12052;SDS011;6087;48.982;12.064;2023-05-10T12:31:07;0.65;;;0.50;;
12052;SDS011;6087;48.982;12.064;2023-05-10T12:33:35;0.50;;;0.50;;
12052;SDS011;6087;48.982;12.064;2023-05-10T12:36:04;0.57;;;0.43;;
12052;SDS011;6087;48.982;12.064;2023-05-10T12:38:32;0.40;;;0.40;;
12052;SDS011;6087;48.982;12.064;2023-05-10T12:41:03;0.60;;;0.60;;
12052;SDS011;6087;48.982;12.064;2023-05-10T12:43:31;0.70;;;0.55;;
12052;SDS011;6087;48.982;12.064;2023-05-10T12:45:58;0.85;;;0.85;;
12052;SDS011;6087;48.982;12.064;2023-05-10T12:48:31;2.20;;;0.88;;
12052;SDS011;6087;48.982;12.064;2023-05-10T12:50:59;0.80;;;0.80;;
12052;SDS011;6087;48.982;12.064;2023-05-10T12:53:26;0.70;;;0.70;;
12052;SDS011;6087;48.982;12.064;2023-05-10T12:55:53;1.27;;;0.52;;
12052;SDS011;6087;48.982;12.064;2023-05-10T12:58:19;0.60;;;0.60;;
12052;SDS011;6087;48.982;12.064;2023-05-10T13:00:46;0.40;;;0.40;;
12052;SDS011;6087;48.982;12.064;2023-05-10T13:03:13;1.50;;;1.00;;
12052;SDS011;6087;48.982;12.064;2023-05-10T13:05:47;2.83;;;1.00;;
12052;SDS011;6087;48.982;12.064;2023-05-10T13:08:14;7.78;;;1.10;;
12052;SDS011;6087;48.982;12.064;2023-05-10T13:10:41;4.72;;;1.00;;
12052;SDS011;6087;48.982;12.064;2023-05-10T13:13:11;2.28;;;1.23;;
12052;SDS011;6087;48.982;12.064;2023-05-10T13:15:40;3.08;;;0.93;;
12052;SDS011;6087;48.982;12.064;2023-05-10T13:18:13;6.13;;;1.30;;
12052;SDS011;6087;48.982;12.064;2023-05-10T13:20:40;1.55;;;1.25;;
12052;SDS011;6087;48.982;12.064;2023-05-10T13:23:10;2.42;;;1.20;;
12052;SDS011;6087;48.982;12.064;2023-05-10T13:25:37;1.77;;;1.00;;
12052;SDS011;6087;48.982;12.064;2023-05-10T13:28:04;2.40;;;1.25;;
12052;SDS011;6087;48.982;12.064;2023-05-10T13:30:31;3.50;;;1.10;;
12052;SDS011;6087;48.982;12.064;2023-05-10T13:32:58;1.33;;;1.25;;
12052;SDS011;6087;48.982;12.064;2023-05-10T13:35:25;2.10;;;1.33;;
12052;SDS011;6087;48.982;12.064;2023-05-10T13:37:51;2.25;;;1.30;;
12052;SDS011;6087;48.982;12.064;2023-05-10T13:40:23;1.33;;;1.23;;
12052;SDS011;6087;48.982;12.064;2023-05-10T13:42:49;1.30;;;1.20;;
12052;SDS011;6087;48.982;12.064;2023-05-10T13:45:18;1.10;;;1.10;;
12052;SDS011;6087;48.982;12.064;2023-05-10T13:47:44;1.70;;;1.08;;
12052;SDS011;6087;48.982;12.064;2023-05-10T13:50:12;1.30;;;1.20;;
12052;SDS011;6087;48.982;12.064;2023-05-10T13:52:38;1.23;;;1.13;;
12052;SDS011;6087;48.982;12.064;2023-05-10T13:55:05;1.80;;;1.42;;
12052;SDS011;6087;48.982;12.064;2023-05-10T13:57:34;1.85;;;1.13;;
12052;SDS011;6087;48.982;12.064;2023-05-10T14:00:02;3.38;;;1.40;;
12052;SDS011;6087;48.982;12.064;2023-05-10T14:02:29;1.13;;;1.05;;
12052;SDS011;6087;48.982;12.064;2023-05-10T14:04:59;1.20;;;1.10;;
12052;SDS011;6087;48.982;12.064;2023-05-10T14:07:26;1.17;;;1.17;;
12052;SDS011;6087;48.982;12.064;2023-05-10T14:09:53;1.80;;;1.05;;
12052;SDS011;6087;48.982;12.064;2023-05-10T14:12:20;1.67;;;1.20;;
12052;SDS011;6087;48.982;12.064;2023-05-10T14:14:48;2.20;;;1.50;;
12052;SDS011;6087;48.982;12.064;2023-05-10T14:17:15;2.25;;;1.17;;
12052;SDS011;6087;48.982;12.064;2023-05-10T14:19:42;1.98;;;1.10;;
12052;SDS011;6087;48.982;12.064;2023-05-10T14:22:09;0.95;;;0.95;;
12052;SDS011;6087;48.982;12.064;2023-05-10T14:24:36;1.58;;;1.27;;
12052;SDS011;6087;48.982;12.064;2023-05-10T14:27:04;1.73;;;1.23;;
12052;SDS011;6087;48.982;12.064;2023-05-10T14:29:34;2.13;;;1.20;;
12052;SDS011;6087;48.982;12.064;2023-05-10T14:32:02;1.40;;;1.30;;
12052;SDS011;6087;48.982;12.064;2023-05-10T14:34:29;2.20;;;1.55;;
12052;SDS011;6087;48.982;12.064;2023-05-10T14:36:56;1.80;;;1.70;;
12052;SDS011;6087;48.982;12.064;2023-05-10T14:39:23;1.80;;;1.70;;
12052;SDS011;6087;48.982;12.064;2023-05-10T14:41:50;3.13;;;1.45;;
12052;SDS011;6087;48.982;12.064;2023-05-10T14:44:17;1.98;;;1.77;;
12052;SDS011;6087;48.982;12.064;2023-05-10T14:46:44;2.13;;;1.80;;
12052;SDS011;6087;48.982;12.064;2023-05-10T14:49:13;2.05;;;1.60;;
12052;SDS011;6087;48.982;12.064;2023-05-10T14:51:40;2.03;;;1.92;;
12052;SDS011;6087;48.982;12.064;2023-05-10T14:54:07;1.63;;;1.45;;
12052;SDS011;6087;48.982;12.064;2023-05-10T14:56:34;1.92;;;1.73;;
12052;SDS011;6087;48.982;12.064;2023-05-10T14:59:02;2.05;;;1.85;;
12052;SDS011;6087;48.982;12.064;2023-05-10T15:01:29;1.42;;;1.30;;